Time;durP1;ratioP1;P1;durP2;ratioP2;P2;SDS_P1;SDS_P2;PMS_P1;PMS_P2;Temp;Humidity;BMP_temperature;BMP_pressure;BME280_temperature;BME280_humidity;BME280_pressure;Samples;Min_cycle;Max_cycle;Signal;HPM_P1;HPM_P2
2022/12/29 00:01:56;;;;;;;1.87;1.50;;;9.60;99.90;;;;;;4972544;28;20460;-74
2022/12/29 00:04:31;;;;;;;1.90;1.27;;;9.60;99.90;;;;;;4970387;28;20453;-74
2022/12/29 00:07:00;;;;;;;2.13;1.50;;;9.60;99.90;;;;;;4991237;28;21083;-74
2022/12/29 00:09:29;;;;;;;1.70;1.40;;;9.60;99.90;;;;;;4970337;28;20434;-74
2022/12/29 00:11:58;;;;;;;2.17;1.30;;;9.70;99.90;;;;;;4987897;28;20559;-74
2022/12/29 00:17:09;;;;;;;1.73;1.27;;;9.70;99.90;;;;;;4998804;28;20474;-74
2022/12/29 00:36:12;;;;;;;1.60;1.40;;;9.70;99.90;;;;;;4965917;28;20473;-74
2022/12/29 00:44:19;;;;;;;2.50;1.50;;;9.70;99.90;;;;;;4973687;28;20457;-74
2022/12/29 00:46:47;;;;;;;1.70;1.50;;;9.70;99.90;;;;;;4989882;28;20515;-73
2022/12/29 00:49:32;;;;;;;1.30;1.17;;;9.70;99.90;;;;;;4974206;28;20432;-73
2022/12/29 00:52:03;;;;;;;1.27;1.03;;;9.70;99.90;;;;;;4992407;28;20463;-74
2022/12/29 00:54:32;;;;;;;1.43;1.33;;;9.70;99.90;;;;;;4994336;28;20419;-74
2022/12/29 00:56:58;;;;;;;1.80;1.60;;;9.70;99.90;;;;;;5000071;28;20997;-74
2022/12/29 00:59:26;;;;;;;1.53;1.40;;;9.70;99.90;;;;;;4972789;28;20446;-74
2022/12/29 01:01:56;;;;;;;2.07;1.87;;;9.70;99.90;;;;;;4974223;28;20462;-74
2022/12/29 01:04:24;;;;;;;1.67;1.23;;;9.80;99.90;;;;;;4984566;28;20459;-74
2022/12/29 01:06:50;;;;;;;2.30;1.20;;;9.80;99.90;;;;;;4977662;28;20409;-74
2022/12/29 01:12:05;;;;;;;1.60;1.37;;;9.80;99.90;;;;;;4978524;28;20478;-74
2022/12/29 01:14:32;;;;;;;1.80;1.20;;;9.80;99.90;;;;;;4959560;28;20507;-74
2022/12/29 01:16:58;;;;;;;2.50;1.03;;;9.80;99.90;;;;;;4981279;28;20772;-74
2022/12/29 01:19:24;;;;;;;1.63;1.40;;;9.80;99.90;;;;;;4994689;28;20421;-74
2022/12/29 01:21:53;;;;;;;1.63;1.30;;;9.80;99.90;;;;;;4990108;28;20484;-74
2022/12/29 01:24:22;;;;;;;2.00;1.30;;;9.80;99.90;;;;;;4974341;28;20475;-74
2022/12/29 01:26:49;;;;;;;1.30;1.17;;;9.80;99.90;;;;;;4993883;28;20471;-74
2022/12/29 01:29:17;;;;;;;1.97;1.00;;;9.90;99.90;;;;;;4976185;28;20440;-74
2022/12/29 01:31:49;;;;;;;1.27;1.10;;;9.90;99.90;;;;;;4993051;28;20440;-74
2022/12/29 01:34:17;;;;;;;1.73;1.07;;;9.90;99.90;;;;;;4991328;28;20511;-74
2022/12/29 01:36:48;;;;;;;1.20;0.97;;;9.90;99.90;;;;;;4976654;28;20448;-74
2022/12/29 01:39:16;;;;;;;0.93;0.83;;;9.90;99.90;;;;;;4991045;28;20428;-74
2022/12/29 01:41:42;;;;;;;1.40;1.10;;;9.90;99.90;;;;;;4960642;28;20441;-74
2022/12/29 01:44:46;;;;;;;1.30;1.00;;;9.90;99.90;;;;;;4992587;28;20584;-74
2022/12/29 01:47:32;;;;;;;2.60;1.13;;;9.90;99.90;;;;;;4991235;28;20495;-74
2022/12/29 01:50:04;;;;;;;1.77;1.33;;;9.90;99.90;;;;;;4974731;28;20951;-74
2022/12/29 01:52:33;;;;;;;0.97;0.87;;;9.90;99.90;;;;;;4990797;28;20477;-74
2022/12/29 01:55:03;;;;;;;2.70;1.03;;;9.90;99.90;;;;;;4992211;28;20436;-74
2022/12/29 01:57:37;;;;;;;1.87;1.03;;;9.90;99.90;;;;;;4972205;28;21069;-74
2022/12/29 02:00:09;;;;;;;1.23;1.03;;;10.00;99.90;;;;;;4982420;28;20427;-74
2022/12/29 02:02:53;;;;;;;1.10;0.77;;;10.00;99.90;;;;;;4993714;28;20474;-74
2022/12/29 02:05:46;;;;;;;2.80;1.10;;;10.00;99.90;;;;;;4993204;28;20429;-74
2022/12/29 02:08:21;;;;;;;1.10;0.80;;;10.00;99.90;;;;;;4962186;28;20450;-74
2022/12/29 02:10:48;;;;;;;1.27;1.00;;;10.00;99.90;;;;;;4974517;28;20413;-74
2022/12/29 02:13:17;;;;;;;1.10;0.90;;;10.00;99.90;;;;;;4955045;28;20506;-74
2022/12/29 02:15:56;;;;;;;1.20;1.00;;;10.00;99.90;;;;;;4976845;28;20497;-74
2022/12/29 02:18:45;;;;;;;1.47;1.10;;;10.00;99.90;;;;;;4994368;28;20908;-74
2022/12/29 02:21:48;;;;;;;2.10;1.10;;;10.00;99.90;;;;;;4982650;28;20416;-74
2022/12/29 02:24:52;;;;;;;1.30;1.07;;;10.00;99.90;;;;;;4991839;28;20476;-74
2022/12/29 02:28:06;;;;;;;1.10;0.83;;;10.00;99.90;;;;;;4961766;28;20429;-74
2022/12/29 02:30:37;;;;;;;1.27;0.90;;;10.00;99.90;;;;;;4933058;28;20875;-74
2022/12/29 02:33:05;;;;;;;1.20;0.90;;;10.00;99.90;;;;;;4934573;28;20672;-74
2022/12/29 02:35:49;;;;;;;3.50;1.30;;;10.00;99.90;;;;;;4935397;29;20442;-74
2022/12/29 02:38:42;;;;;;;1.33;1.10;;;10.10;99.90;;;;;;4931164;28;20461;-74
2022/12/29 02:41:19;;;;;;;1.50;1.17;;;10.10;99.90;;;;;;4929763;29;20442;-74
2022/12/29 02:43:47;;;;;;;1.43;1.10;;;10.10;99.90;;;;;;4922318;29;20494;-74
2022/12/29 02:46:32;;;;;;;1.33;0.90;;;10.10;99.90;;;;;;4920439;29;20415;-74
2022/12/29 02:49:18;;;;;;;1.40;1.20;;;10.10;99.90;;;;;;4935345;29;20510;-74
2022/12/29 02:52:00;;;;;;;2.20;1.20;;;10.10;99.90;;;;;;4904085;29;20541;-74
2022/12/29 02:54:41;;;;;;;2.73;1.20;;;10.10;99.90;;;;;;4934949;29;20451;-74
2022/12/29 02:57:20;;;;;;;1.50;0.90;;;10.10;99.90;;;;;;4935702;29;20424;-74
2022/12/29 02:59:51;;;;;;;1.50;0.97;;;10.10;99.90;;;;;;4933826;29;20442;-74
2022/12/29 03:02:40;;;;;;;3.73;1.13;;;10.10;99.90;;;;;;4973569;28;20548;-74
2022/12/29 03:05:14;;;;;;;1.60;1.30;;;10.10;99.90;;;;;;4973977;28;20433;-74
2022/12/29 03:08:05;;;;;;;1.80;1.20;;;10.10;99.90;;;;;;4971517;28;20414;-74
2022/12/29 03:10:50;;;;;;;1.50;1.20;;;10.10;99.90;;;;;;4960881;28;20508;-74
2022/12/29 03:16:16;;;;;;;1.80;1.30;;;10.10;99.90;;;;;;4961513;28;20448;-74
2022/12/29 03:18:49;;;;;;;6.43;2.00;;;10.10;99.90;;;;;;4972949;23;21610;-72
2022/12/29 03:24:38;;;;;;;1.40;1.20;;;10.20;99.90;;;;;;4957428;28;20453;-72
2022/12/29 03:27:06;;;;;;;3.00;1.10;;;10.10;99.90;;;;;;4973337;28;20397;-72
2022/12/29 03:29:44;;;;;;;1.87;1.50;;;10.20;99.90;;;;;;4973299;28;20399;-72
2022/12/29 03:32:14;;;;;;;2.57;1.30;;;10.20;99.90;;;;;;4957170;28;20454;-72
2022/12/29 03:34:40;;;;;;;1.23;1.03;;;10.20;99.90;;;;;;4973197;28;20406;-72
2022/12/29 03:37:12;;;;;;;1.30;1.10;;;10.20;99.90;;;;;;4957074;28;20453;-72
2022/12/29 03:39:38;;;;;;;2.23;1.40;;;10.20;99.90;;;;;;4973059;28;20405;-70
2022/12/29 03:42:16;;;;;;;1.23;1.00;;;10.20;99.90;;;;;;4951105;28;20427;-70
2022/12/29 03:44:43;;;;;;;2.70;1.10;;;10.20;99.90;;;;;;4937931;29;20539;-70
2022/12/29 03:47:15;;;;;;;2.13;1.57;;;10.20;99.90;;;;;;4954029;29;20427;-70
2022/12/29 03:49:44;;;;;;;1.30;1.20;;;10.20;99.90;;;;;;4953797;29;20403;-70
2022/12/29 03:52:11;;;;;;;2.53;1.43;;;10.20;99.90;;;;;;4953906;28;20464;-70
2022/12/29 03:54:44;;;;;;;2.27;1.30;;;10.20;99.90;;;;;;4953930;29;20470;-70
2022/12/29 03:57:15;;;;;;;3.60;1.00;;;10.20;99.90;;;;;;4954312;28;20407;-70
2022/12/29 03:59:50;;;;;;;2.80;1.00;;;10.20;99.90;;;;;;4973131;28;20438;-70
2022/12/29 04:02:20;;;;;;;1.30;1.10;;;10.20;99.90;;;;;;4972988;28;20416;-71
2022/12/29 04:04:46;;;;;;;1.27;1.17;;;10.30;99.90;;;;;;4960820;28;20847;-70
2022/12/29 04:07:14;;;;;;;2.23;1.10;;;10.20;99.90;;;;;;4976635;28;20417;-70
2022/12/29 04:09:46;;;;;;;2.10;1.37;;;10.20;99.90;;;;;;4976735;28;20422;-70
2022/12/29 04:12:20;;;;;;;1.73;1.10;;;10.30;99.90;;;;;;4976616;28;20465;-70
2022/12/29 04:14:46;;;;;;;1.80;1.20;;;10.20;99.90;;;;;;4976527;28;20484;-70
2022/12/29 04:17:15;;;;;;;3.90;1.83;;;10.30;99.90;;;;;;4960740;28;20450;-70
2022/12/29 04:19:42;;;;;;;1.63;0.90;;;10.30;99.90;;;;;;4960527;28;20445;-72
2022/12/29 04:22:09;;;;;;;3.17;1.30;;;10.30;99.90;;;;;;4960581;28;20410;-70
2022/12/29 04:24:35;;;;;;;1.50;1.17;;;10.30;99.90;;;;;;4976639;28;20409;-70
2022/12/29 04:27:07;;;;;;;1.47;1.23;;;10.30;99.90;;;;;;4976611;28;20447;-70
2022/12/29 04:29:46;;;;;;;1.20;1.03;;;10.30;99.90;;;;;;4976397;28;20437;-70
2022/12/29 04:32:32;;;;;;;2.07;1.20;;;10.30;99.90;;;;;;4977083;28;20523;-70
2022/12/29 04:35:04;;;;;;;1.60;1.10;;;10.30;99.90;;;;;;4980955;28;20845;-70
2022/12/29 04:37:33;;;;;;;1.37;1.10;;;10.30;99.90;;;;;;4940682;28;20401;-70
2022/12/29 04:39:59;;;;;;;1.33;1.07;;;10.30;99.90;;;;;;4960040;28;20426;-70
2022/12/29 04:42:27;;;;;;;1.67;1.10;;;10.30;99.90;;;;;;4976257;28;20525;-70
2022/12/29 04:44:53;;;;;;;1.80;1.27;;;10.30;99.90;;;;;;4960019;28;20488;-70
2022/12/29 04:47:40;;;;;;;1.70;0.90;;;10.30;99.90;;;;;;4976289;28;20422;-70
2022/12/29 04:50:26;;;;;;;1.50;1.30;;;10.40;99.90;;;;;;4976707;28;20497;-70
2022/12/29 04:53:04;;;;;;;1.23;1.00;;;10.40;99.90;;;;;;4976033;28;20469;-70
2022/12/29 04:55:32;;;;;;;1.67;0.97;;;10.40;99.90;;;;;;4992076;28;20460;-70
2022/12/29 04:58:01;;;;;;;1.50;1.10;;;10.40;99.90;;;;;;4976123;28;20513;-70
2022/12/29 05:00:36;;;;;;;2.10;1.33;;;10.40;99.90;;;;;;4975397;28;20456;-70
2022/12/29 05:03:04;;;;;;;1.33;1.00;;;10.40;99.90;;;;;;4940592;29;20459;-70
2022/12/29 05:05:31;;;;;;;2.37;1.03;;;10.40;99.90;;;;;;4924864;29;20487;-71
2022/12/29 05:07:58;;;;;;;1.20;1.03;;;10.40;99.90;;;;;;4973982;28;20422;-71
2022/12/29 05:10:24;;;;;;;1.77;1.27;;;10.40;99.90;;;;;;4975539;28;20404;-72
2022/12/29 05:12:52;;;;;;;2.07;1.03;;;10.40;99.90;;;;;;4991613;28;20484;-71
2022/12/29 05:15:20;;;;;;;2.60;1.33;;;10.40;99.90;;;;;;4957421;28;20451;-71
2022/12/29 05:17:48;;;;;;;1.20;0.90;;;10.40;99.90;;;;;;4956671;29;20435;-71
2022/12/29 05:20:15;;;;;;;1.67;1.03;;;10.40;99.90;;;;;;4956284;29;20431;-71
2022/12/29 05:22:41;;;;;;;1.80;1.20;;;10.40;99.90;;;;;;4956080;29;20821;-71
2022/12/29 05:25:10;;;;;;;2.13;1.40;;;10.40;99.90;;;;;;4960274;28;20469;-71
2022/12/29 05:27:55;;;;;;;1.40;1.10;;;10.50;99.90;;;;;;4959490;28;20410;-71
2022/12/29 05:30:42;;;;;;;1.90;0.97;;;10.40;99.90;;;;;;4976888;28;20497;-71
2022/12/29 05:33:11;;;;;;;2.57;1.17;;;10.50;99.90;;;;;;4943414;28;20474;-71
2022/12/29 05:35:41;;;;;;;7.03;1.67;;;10.50;99.90;;;;;;4975265;28;20414;-71
2022/12/29 05:38:07;;;;;;;2.27;1.20;;;10.50;99.90;;;;;;4976212;28;20948;-71
2022/12/29 05:40:36;;;;;;;3.00;1.13;;;10.50;99.90;;;;;;4975324;28;20434;-71
2022/12/29 05:43:08;;;;;;;1.30;1.10;;;10.50;99.90;;;;;;4943436;28;20449;-71
2022/12/29 05:45:43;;;;;;;1.10;1.00;;;10.50;99.90;;;;;;4976351;28;20456;-71
2022/12/29 05:48:35;;;;;;;2.30;1.20;;;10.50;99.90;;;;;;4974975;28;20521;-71
2022/12/29 05:51:28;;;;;;;1.30;0.97;;;10.50;99.90;;;;;;4962843;28;20821;-71
2022/12/29 05:53:54;;;;;;;2.80;1.27;;;10.50;99.90;;;;;;4966444;28;20471;-71
2022/12/29 05:56:20;;;;;;;1.40;1.10;;;10.50;99.90;;;;;;4920780;29;20944;-71
2022/12/29 05:58:52;;;;;;;3.60;1.00;;;10.50;99.90;;;;;;4952348;29;20429;-71
2022/12/29 06:01:22;;;;;;;1.50;1.07;;;10.50;99.90;;;;;;4952574;29;20407;-71
2022/12/29 06:03:50;;;;;;;1.40;1.00;;;10.50;99.90;;;;;;4920429;29;20523;-71
2022/12/29 06:06:41;;;;;;;1.73;1.27;;;10.50;99.90;;;;;;4960570;28;20938;-71
2022/12/29 06:09:13;;;;;;;1.60;1.20;;;10.50;99.90;;;;;;4937865;28;20437;-71
2022/12/29 06:11:39;;;;;;;4.80;1.27;;;10.50;99.90;;;;;;4958693;28;20422;-71
2022/12/29 06:14:12;;;;;;;2.83;1.87;;;10.50;99.90;;;;;;4974515;28;20482;-71
2022/12/29 06:16:41;;;;;;;2.43;1.40;;;10.50;99.90;;;;;;4974489;28;20750;-71
2022/12/29 06:19:15;;;;;;;1.93;1.10;;;10.50;99.90;;;;;;4958391;28;20555;-71
2022/12/29 06:21:41;;;;;;;1.23;0.90;;;10.50;99.90;;;;;;4990436;28;20792;-71
2022/12/29 06:24:10;;;;;;;1.93;1.37;;;10.50;99.90;;;;;;4974414;28;20427;-71
2022/12/29 06:26:36;;;;;;;2.50;1.27;;;10.50;99.90;;;;;;4973887;28;20394;-71
2022/12/29 06:29:03;;;;;;;2.00;1.30;;;10.50;99.90;;;;;;4947779;28;20952;-71
2022/12/29 06:31:31;;;;;;;4.90;1.67;;;10.50;99.90;;;;;;4954960;29;20415;-71
2022/12/29 06:33:58;;;;;;;1.33;1.00;;;10.50;99.90;;;;;;4938598;29;20483;-71
2022/12/29 06:36:24;;;;;;;3.20;1.20;;;10.50;99.90;;;;;;4938753;29;20395;-71
2022/12/29 06:38:52;;;;;;;1.47;1.13;;;10.50;99.90;;;;;;4954859;29;20564;-71
2022/12/29 06:41:19;;;;;;;4.37;1.30;;;10.50;99.90;;;;;;4938888;29;20780;-71
2022/12/29 06:44:10;;;;;;;2.83;1.40;;;10.50;99.90;;;;;;4955641;28;20967;-71
2022/12/29 06:46:50;;;;;;;1.57;1.07;;;10.50;99.90;;;;;;4955454;29;20533;-71
2022/12/29 06:49:17;;;;;;;1.67;1.10;;;10.50;99.90;;;;;;4942831;28;20510;-71
2022/12/29 06:51:43;;;;;;;1.60;1.00;;;10.50;99.90;;;;;;4973770;28;20413;-71
2022/12/29 06:54:14;;;;;;;3.57;0.90;;;10.50;99.90;;;;;;4973754;28;20830;-71
2022/12/29 06:56:40;;;;;;;3.20;1.00;;;10.50;99.90;;;;;;4973697;28;20386;-71
2022/12/29 06:59:06;;;;;;;1.60;1.20;;;10.50;99.90;;;;;;4973872;28;20427;-71
2022/12/29 07:01:35;;;;;;;2.80;1.30;;;10.50;99.90;;;;;;4973725;28;20449;-71
2022/12/29 07:04:04;;;;;;;1.80;1.23;;;10.50;99.90;;;;;;4973573;28;20489;-71
2022/12/29 07:06:30;;;;;;;3.20;1.07;;;10.50;99.90;;;;;;4974823;28;20466;-71
2022/12/29 07:08:57;;;;;;;6.03;1.43;;;10.50;99.90;;;;;;4973589;28;20477;-71
2022/12/29 07:11:23;;;;;;;2.27;1.10;;;10.50;99.90;;;;;;4973673;28;20982;-70
2022/12/29 07:13:51;;;;;;;2.00;1.20;;;10.50;99.90;;;;;;4988663;28;20876;-70
2022/12/29 07:16:18;;;;;;;4.10;1.40;;;10.50;99.90;;;;;;4955262;28;20445;-70
2022/12/29 07:18:46;;;;;;;3.73;1.30;;;10.50;99.90;;;;;;4954920;28;20435;-71
2022/12/29 07:21:11;;;;;;;2.90;1.17;;;10.50;99.90;;;;;;4954165;29;20466;-71
2022/12/29 07:23:42;;;;;;;5.43;1.40;;;10.50;99.90;;;;;;4954062;28;20445;-71
2022/12/29 07:26:12;;;;;;;1.40;1.13;;;10.50;99.90;;;;;;4954128;29;20407;-71
2022/12/29 07:28:39;;;;;;;3.00;1.30;;;10.50;99.90;;;;;;4953988;29;20919;-71
2022/12/29 07:31:12;;;;;;;3.00;1.03;;;10.50;99.90;;;;;;4955038;29;20438;-71
2022/12/29 07:33:41;;;;;;;3.07;1.20;;;10.60;99.90;;;;;;4953687;28;20983;-71
2022/12/29 07:36:09;;;;;;;2.13;1.30;;;10.50;99.90;;;;;;4938182;29;20420;-71
2022/12/29 07:38:35;;;;;;;1.77;1.23;;;10.60;99.90;;;;;;4953196;28;20443;-71
2022/12/29 07:41:04;;;;;;;2.43;1.30;;;10.50;99.90;;;;;;4953903;29;20494;-71
2022/12/29 07:43:32;;;;;;;3.93;1.30;;;10.50;99.90;;;;;;4953858;28;20443;-71
2022/12/29 07:46:21;;;;;;;2.60;1.63;;;10.50;99.90;;;;;;4931596;29;20438;-71
2022/12/29 07:48:47;;;;;;;1.83;1.20;;;10.60;99.90;;;;;;4953754;29;20933;-71
2022/12/29 07:51:13;;;;;;;1.77;1.20;;;10.60;99.90;;;;;;4953785;29;20431;-71
2022/12/29 07:53:44;;;;;;;1.93;1.30;;;10.50;99.90;;;;;;4953524;28;20856;-71
2022/12/29 07:56:10;;;;;;;2.40;1.20;;;10.50;99.90;;;;;;4953831;29;20772;-71
2022/12/29 07:58:36;;;;;;;2.37;1.10;;;10.60;99.90;;;;;;4953946;29;20417;-71
2022/12/29 08:01:02;;;;;;;5.70;1.33;;;10.60;99.90;;;;;;4954760;29;20444;-71
2022/12/29 08:03:30;;;;;;;3.87;1.37;;;10.60;99.90;;;;;;4953702;28;20448;-71
2022/12/29 08:05:59;;;;;;;3.80;1.33;;;10.60;99.90;;;;;;4960422;28;20930;-71
2022/12/29 08:08:25;;;;;;;4.10;1.20;;;10.60;99.90;;;;;;4957054;28;20501;-71
2022/12/29 08:10:51;;;;;;;2.43;0.97;;;10.60;99.90;;;;;;4974088;28;20513;-71
2022/12/29 08:13:22;;;;;;;3.13;1.40;;;10.60;99.90;;;;;;4972783;28;20470;-71
2022/12/29 08:15:50;;;;;;;5.20;1.30;;;10.60;99.90;;;;;;4972283;28;20457;-69
2022/12/29 08:18:16;;;;;;;4.33;1.00;;;10.60;99.90;;;;;;4956726;28;20396;-70
2022/12/29 08:20:42;;;;;;;6.30;1.67;;;10.60;99.90;;;;;;4968827;28;20490;-69
2022/12/29 08:23:08;;;;;;;2.93;1.37;;;10.60;99.90;;;;;;4955872;28;20859;-71
2022/12/29 08:25:34;;;;;;;3.37;1.27;;;10.60;99.90;;;;;;4954479;29;20454;-69
2022/12/29 08:28:00;;;;;;;2.67;1.20;;;10.60;99.90;;;;;;4937655;29;20462;-70
2022/12/29 08:30:27;;;;;;;4.93;1.60;;;10.60;99.90;;;;;;4954631;29;20412;-70
2022/12/29 08:32:53;;;;;;;2.07;1.20;;;10.60;99.90;;;;;;4963206;28;20986;-70
2022/12/29 08:35:21;;;;;;;5.30;1.80;;;10.60;99.90;;;;;;4972562;28;20406;-70
2022/12/29 08:37:52;;;;;;;4.13;1.30;;;10.60;99.90;;;;;;4973782;28;20398;-70
2022/12/29 08:40:20;;;;;;;2.33;1.03;;;10.60;99.90;;;;;;4973867;28;20525;-70
2022/12/29 08:42:46;;;;;;;4.30;1.10;;;10.60;99.90;;;;;;4956558;28;20445;-70
2022/12/29 08:45:13;;;;;;;3.50;1.57;;;10.60;99.90;;;;;;4973873;28;20770;-70
2022/12/29 08:47:38;;;;;;;6.20;1.60;;;10.60;99.90;;;;;;4972594;28;20516;-70
2022/12/29 08:50:05;;;;;;;6.07;1.53;;;10.60;99.90;;;;;;4976507;28;20908;-70
2022/12/29 08:52:31;;;;;;;7.00;1.37;;;10.60;99.90;;;;;;4975685;28;20466;-70
2022/12/29 08:54:57;;;;;;;2.97;1.10;;;10.60;99.90;;;;;;4959589;28;20850;-70
2022/12/29 08:57:23;;;;;;;3.17;1.10;;;10.60;99.90;;;;;;4954978;29;20444;-70
2022/12/29 09:00:05;;;;;;;4.13;1.30;;;10.60;99.90;;;;;;4938659;29;20502;-70
2022/12/29 09:02:33;;;;;;;3.53;1.13;;;10.60;99.90;;;;;;4955656;28;20450;-70
2022/12/29 09:05:00;;;;;;;2.70;1.20;;;10.60;99.90;;;;;;4955289;29;20498;-70
2022/12/29 09:07:25;;;;;;;4.53;2.00;;;10.60;99.90;;;;;;4938801;29;20955;-70
2022/12/29 09:09:51;;;;;;;3.77;1.33;;;10.60;99.90;;;;;;4938452;29;20518;-70
2022/12/29 09:12:18;;;;;;;5.77;1.40;;;10.60;99.90;;;;;;4956760;28;20451;-70
2022/12/29 09:14:46;;;;;;;3.80;1.80;;;10.60;99.90;;;;;;4922822;29;20840;-74
2022/12/29 09:19:57;;;;;;;4.83;1.67;;;10.60;99.90;;;;;;4949803;28;20493;-73
2022/12/29 09:22:23;;;;;;;4.63;2.00;;;10.60;99.90;;;;;;4953795;28;20773;-74
2022/12/29 09:24:49;;;;;;;6.67;2.27;;;10.60;99.90;;;;;;4964045;28;20425;-73
2022/12/29 09:27:20;;;;;;;2.80;1.10;;;10.60;99.90;;;;;;4936926;29;21079;-73
2022/12/29 09:29:48;;;;;;;4.33;1.43;;;10.60;99.90;;;;;;4954712;28;20488;-73
2022/12/29 09:32:16;;;;;;;7.27;2.20;;;10.60;99.90;;;;;;5023911;23;20564;-71
2022/12/29 09:34:47;;;;;;;4.20;1.03;;;10.60;99.90;;;;;;4961031;28;20907;-72
2022/12/29 09:37:13;;;;;;;4.17;1.50;;;10.60;99.90;;;;;;4976297;28;20450;-73
2022/12/29 09:39:40;;;;;;;4.63;1.33;;;10.60;99.90;;;;;;4970449;28;20425;-72
2022/12/29 09:42:19;;;;;;;5.20;1.63;;;10.60;99.90;;;;;;4982094;28;20831;-72
2022/12/29 09:45:41;;;;;;;3.50;1.77;;;10.60;99.90;;;;;;4972385;28;20789;-72
2022/12/29 09:48:24;;;;;;;5.53;1.40;;;10.60;99.90;;;;;;4954930;28;20509;-72
2022/12/29 09:50:56;;;;;;;7.83;1.50;;;10.60;99.90;;;;;;4962809;28;20436;-72
2022/12/29 09:53:27;;;;;;;2.77;1.20;;;10.60;99.90;;;;;;4992085;28;20612;-72
2022/12/29 09:55:59;;;;;;;3.90;1.40;;;10.60;99.90;;;;;;4984949;28;20919;-73
2022/12/29 09:58:39;;;;;;;4.47;1.57;;;10.60;99.90;;;;;;4970496;28;20434;-73
2022/12/29 10:01:14;;;;;;;3.83;1.33;;;10.60;99.90;;;;;;4969175;28;21008;-72
2022/12/29 10:03:53;;;;;;;4.70;1.30;;;10.60;99.90;;;;;;4973516;28;20469;-72
2022/12/29 10:06:42;;;;;;;5.07;1.30;;;10.60;99.90;;;;;;4939197;28;20438;-72
2022/12/29 10:09:29;;;;;;;3.80;1.20;;;10.60;99.90;;;;;;4953251;28;20423;-72
2022/12/29 10:12:28;;;;;;;6.43;1.50;;;10.60;99.90;;;;;;4953537;28;20430;-72
2022/12/29 10:15:13;;;;;;;4.10;1.30;;;10.60;99.90;;;;;;4971627;28;20474;-72
2022/12/29 10:17:57;;;;;;;4.43;1.50;;;10.60;99.90;;;;;;4966959;28;20489;-72
2022/12/29 10:20:24;;;;;;;4.53;1.67;;;10.60;99.90;;;;;;4982299;28;20449;-72
2022/12/29 10:23:23;;;;;;;6.00;1.47;;;10.60;99.90;;;;;;4968509;28;20787;-72
2022/12/29 10:25:57;;;;;;;6.90;1.67;;;10.60;99.90;;;;;;4960746;28;20532;-72
2022/12/29 10:28:47;;;;;;;4.10;1.40;;;10.60;99.90;;;;;;4971256;28;20809;-72
2022/12/29 10:31:33;;;;;;;6.67;1.60;;;10.60;99.90;;;;;;4962282;28;20456;-74
2022/12/29 10:34:05;;;;;;;5.00;2.50;;;10.60;99.90;;;;;;4969506;28;20552;-73
2022/12/29 10:36:48;;;;;;;4.70;1.10;;;10.60;99.90;;;;;;4957841;28;21095;-73
2022/12/29 10:39:36;;;;;;;5.00;1.53;;;10.60;99.90;;;;;;4975142;28;20458;-73
2022/12/29 10:42:05;;;;;;;3.37;1.17;;;10.60;99.90;;;;;;4946374;29;20473;-72
2022/12/29 10:44:34;;;;;;;1.90;1.40;;;10.60;99.90;;;;;;4970153;28;20876;-73
2022/12/29 10:47:12;;;;;;;7.30;1.77;;;10.70;99.90;;;;;;4952405;28;20531;-73
2022/12/29 10:49:45;;;;;;;4.10;1.63;;;10.70;99.90;;;;;;4946855;28;20858;-72
2022/12/29 10:52:16;;;;;;;7.83;1.57;;;10.70;99.90;;;;;;4972716;28;20449;-71
2022/12/29 10:54:57;;;;;;;4.97;1.33;;;10.70;99.90;;;;;;4970149;28;20929;-73
2022/12/29 10:57:30;;;;;;;7.33;1.60;;;10.70;99.90;;;;;;4936845;28;21002;-72
2022/12/29 11:00:08;;;;;;;5.30;1.37;;;10.70;99.90;;;;;;4969126;28;20430;-72
2022/12/29 11:03:02;;;;;;;2.80;1.20;;;10.70;99.90;;;;;;4953914;28;20477;-72
2022/12/29 11:05:49;;;;;;;6.60;1.67;;;10.70;99.90;;;;;;4961246;28;20469;-72
2022/12/29 11:08:20;;;;;;;10.57;2.00;;;10.70;99.90;;;;;;4967014;28;20517;-72
2022/12/29 11:11:03;;;;;;;4.13;1.53;;;10.70;99.90;;;;;;4961229;28;20975;-72
2022/12/29 11:13:31;;;;;;;4.20;1.77;;;10.70;99.90;;;;;;4968023;28;20983;-72
2022/12/29 11:15:59;;;;;;;4.97;1.70;;;10.70;99.90;;;;;;4966874;28;21019;-72
2022/12/29 11:18:31;;;;;;;6.17;2.53;;;10.70;99.90;;;;;;4970030;28;20435;-72
2022/12/29 11:21:06;;;;;;;4.73;1.57;;;10.70;99.90;;;;;;4957062;28;20409;-72
2022/12/29 11:23:32;;;;;;;4.13;1.03;;;10.70;99.90;;;;;;4980778;28;20451;-72
2022/12/29 11:26:12;;;;;;;5.33;1.50;;;10.70;99.90;;;;;;4986395;28;20985;-72
2022/12/29 11:28:39;;;;;;;5.53;1.50;;;10.70;99.90;;;;;;4969586;28;20466;-72
2022/12/29 11:31:07;;;;;;;7.83;1.93;;;10.80;99.90;;;;;;4952126;28;20527;-72
2022/12/29 11:33:39;;;;;;;8.50;1.37;;;10.80;99.90;;;;;;4971004;28;21050;-72
2022/12/29 11:36:19;;;;;;;5.30;1.70;;;10.80;99.90;;;;;;4984834;28;21025;-72
2022/12/29 11:38:58;;;;;;;7.43;1.20;;;10.80;99.90;;;;;;4983196;28;20480;-72
2022/12/29 11:41:29;;;;;;;7.17;1.53;;;10.80;99.90;;;;;;4970227;28;20430;-72
2022/12/29 11:44:04;;;;;;;3.27;1.17;;;10.80;99.90;;;;;;4974649;28;20461;-72
2022/12/29 11:46:37;;;;;;;3.70;1.30;;;10.80;99.90;;;;;;4955788;28;20417;-72
2022/12/29 11:49:04;;;;;;;3.77;1.20;;;10.80;99.90;;;;;;4988295;28;20536;-72
2022/12/29 11:51:44;;;;;;;4.87;1.67;;;10.80;99.90;;;;;;4988508;28;20788;-72
2022/12/29 11:54:21;;;;;;;3.53;1.63;;;10.80;99.90;;;;;;4988349;28;20480;-72
2022/12/29 11:56:49;;;;;;;6.50;1.73;;;10.80;99.90;;;;;;4989199;28;20417;-72
2022/12/29 11:59:34;;;;;;;6.77;1.40;;;10.80;99.90;;;;;;4994823;28;20534;-72
2022/12/29 12:02:12;;;;;;;6.00;1.80;;;10.80;99.90;;;;;;4969045;28;20489;-72
2022/12/29 12:04:38;;;;;;;4.80;1.50;;;10.80;99.90;;;;;;4965970;28;20443;-72
2022/12/29 12:07:10;;;;;;;5.63;1.37;;;10.80;99.90;;;;;;4983550;28;20425;-72
2022/12/29 12:09:57;;;;;;;7.90;2.30;;;10.80;99.90;;;;;;4971139;28;20484;-71
2022/12/29 12:12:49;;;;;;;4.73;1.30;;;10.80;99.90;;;;;;4936397;29;20460;-72
2022/12/29 12:15:31;;;;;;;3.63;1.60;;;10.80;99.90;;;;;;4967957;28;20783;-72
2022/12/29 12:18:29;;;;;;;4.63;1.60;;;10.80;99.90;;;;;;4971329;28;20830;-72
2022/12/29 12:21:13;;;;;;;6.17;2.67;;;10.80;99.90;;;;;;4987397;28;20442;-72
2022/12/29 12:23:42;;;;;;;7.30;1.87;;;10.80;99.90;;;;;;4970679;28;20951;-72
2022/12/29 12:26:11;;;;;;;7.33;2.33;;;10.80;99.90;;;;;;4971118;28;20833;-72
2022/12/29 12:28:52;;;;;;;5.23;1.20;;;10.80;99.90;;;;;;4939858;29;20816;-72
2022/12/29 12:31:27;;;;;;;5.33;1.30;;;10.80;99.90;;;;;;4941193;28;20442;-72
2022/12/29 12:34:05;;;;;;;3.60;1.30;;;10.80;99.90;;;;;;4974539;28;20474;-72
2022/12/29 12:36:37;;;;;;;6.80;1.37;;;10.80;99.90;;;;;;4958152;28;20458;-72
2022/12/29 12:39:44;;;;;;;7.90;1.60;;;10.80;99.90;;;;;;4974949;28;20970;-72
2022/12/29 12:42:30;;;;;;;4.23;1.50;;;10.80;99.90;;;;;;4973796;28;20540;-71
2022/12/29 12:45:26;;;;;;;9.33;1.63;;;10.80;99.90;;;;;;4969742;28;20421;-72
2022/12/29 12:48:26;;;;;;;5.50;1.70;;;10.80;99.90;;;;;;4969288;28;20466;-72
2022/12/29 12:51:34;;;;;;;5.07;1.37;;;10.80;99.90;;;;;;4975679;28;20442;-72
2022/12/29 12:54:04;;;;;;;7.43;1.90;;;10.80;99.90;;;;;;4975185;28;20932;-72
2022/12/29 12:56:46;;;;;;;5.13;1.20;;;10.80;99.90;;;;;;4976148;28;21292;-72
2022/12/29 12:59:26;;;;;;;2.33;0.87;;;10.80;99.90;;;;;;4975954;28;20537;-72
2022/12/29 13:02:20;;;;;;;8.93;1.63;;;10.80;99.90;;;;;;4974215;28;20510;-71
2022/12/29 13:05:20;;;;;;;9.97;1.30;;;10.80;99.90;;;;;;4973973;28;20450;-72
2022/12/29 13:08:12;;;;;;;3.30;1.40;;;10.80;99.90;;;;;;4979502;28;20442;-72
2022/12/29 13:10:47;;;;;;;6.07;1.40;;;10.80;99.90;;;;;;4973689;28;20434;-72
2022/12/29 13:13:23;;;;;;;6.90;2.00;;;10.80;99.90;;;;;;4962695;28;20480;-72
2022/12/29 13:16:13;;;;;;;5.97;1.63;;;10.80;99.90;;;;;;4966780;28;20462;-72
2022/12/29 13:18:44;;;;;;;4.50;1.30;;;10.80;99.90;;;;;;4969467;28;20432;-72
2022/12/29 13:21:54;;;;;;;4.90;1.50;;;10.80;99.90;;;;;;4970356;28;20789;-72
2022/12/29 13:24:47;;;;;;;6.00;1.43;;;10.80;99.90;;;;;;4944803;29;20459;-72
2022/12/29 13:27:34;;;;;;;4.07;1.00;;;10.80;99.90;;;;;;4941245;28;20454;-72
2022/12/29 13:30:04;;;;;;;7.47;1.73;;;10.80;99.90;;;;;;4971719;28;20435;-72
2022/12/29 13:32:53;;;;;;;7.10;2.07;;;10.80;99.90;;;;;;4972358;28;20510;-72
2022/12/29 13:35:55;;;;;;;4.53;1.83;;;10.80;99.90;;;;;;4974266;28;20414;-72
2022/12/29 13:38:32;;;;;;;5.37;1.47;;;10.80;99.90;;;;;;4969179;28;21005;-72
2022/12/29 13:41:25;;;;;;;5.83;1.30;;;10.80;99.90;;;;;;4957638;28;20450;-72
2022/12/29 13:43:55;;;;;;;3.53;1.87;;;10.80;99.90;;;;;;4970264;28;20991;-72
2022/12/29 13:46:33;;;;;;;6.73;1.43;;;10.80;99.90;;;;;;4964866;28;20414;-73
2022/12/29 13:49:18;;;;;;;6.90;1.60;;;10.80;99.90;;;;;;4974077;28;20947;-73
2022/12/29 13:52:14;;;;;;;3.27;1.67;;;10.80;99.90;;;;;;4974640;28;20427;-72
2022/12/29 13:55:08;;;;;;;10.43;1.60;;;10.80;99.90;;;;;;4973151;28;20444;-73
2022/12/29 13:57:48;;;;;;;5.70;1.53;;;10.80;99.90;;;;;;4973625;28;20438;-72
2022/12/29 14:00:20;;;;;;;6.10;1.67;;;10.80;99.90;;;;;;4972990;28;20477;-72
2022/12/29 14:02:46;;;;;;;3.47;1.17;;;10.80;99.90;;;;;;4972587;28;20540;-72